KAPN/APN METAR and TAF weather

Enter ICAO airport designator
Station Type Date Time Source
KAPN METAR 2019/12/13 21:54 UTC NOAA

KAPN 132154Z AUTO 12003KT 10SM OVC047 02/M02 A2987 RMK AO2 SLP121 T00221017


Station Type Date Time Source
KAPN Decoded METAR 2019/12/13 21:54 UTC NOAA

ALPENA COUNTY REGIONAL AIRPORT, MI, United States (KAPN) 45-05N 083-34W 210M
Dec 13, 2019 - 04:54 PM EST / 2019.12.13 2154 UTC
Wind: from the ESE (120 degrees) at 3 MPH (3 KT):0
Visibility: 10 mile(s):0
Sky conditions: overcast
Temperature: 36.0 F (2.2 C)
Dew Point: 28.9 F (-1.7 C)
Relative Humidity: 75%
Pressure (altimeter): 29.87 in. Hg (1011 hPa)
ob: KAPN 132154Z AUTO 12003KT 10SM OVC047 02/M02 A2987 RMK AO2 SLP121 T00221017
cycle: 22

Station Type Date Time Source
KAPN TAF 2019/12/13 18:40 UTC NOAA

TAF KAPN 131737Z 1318/1418 17004KT P6SM OVC045
FM140300 00000KT P6SM OVC023
FM141100 VRB03KT P6SM OVC025

Example: see airport list